Time;durP1;ratioP1;P1;durP2;ratioP2;P2;SDS_P1;SDS_P2;PMS_P1;PMS_P2;Temp;Humidity;BMP_temperature;BMP_pressure;BME280_temperature;BME280_humidity;BME280_pressure;Samples;Min_cycle;Max_cycle;Signal;HPM_P1;HPM_P2
2022/07/30 00:01:03;;;;;;;;;6.50;5.25;;;;;22.88;59.91;99364.66;5054762;28;45349;-77
2022/07/30 00:03:28;;;;;;;;;8.25;6.00;;;;;22.91;60.25;99353.63;5055240;28;45341;-77
2022/07/30 00:05:55;;;;;;;;;6.25;5.00;;;;;22.96;60.11;99354.06;5050467;28;48414;-77
2022/07/30 00:08:23;;;;;;;;;5.60;5.60;;;;;22.99;59.99;99342.19;5051378;28;45322;-77
2022/07/30 00:10:50;;;;;;;;;7.00;7.00;;;;;23.00;59.73;99349.25;5054809;28;45600;-78
2022/07/30 00:13:15;;;;;;;;;6.25;6.25;;;;;22.97;60.25;99347.69;5055712;28;45482;-77
2022/07/30 00:15:41;;;;;;;;;7.00;5.50;;;;;22.95;60.38;99341.63;5052453;28;46591;-78
2022/07/30 00:18:06;;;;;;;;;7.50;5.00;;;;;22.94;60.11;99341.75;5054580;28;45424;-78
2022/07/30 00:20:32;;;;;;;;;6.25;6.25;;;;;22.92;59.77;99341.03;5051601;28;45394;-77
2022/07/30 00:22:57;;;;;;;;;7.50;7.25;;;;;22.90;59.61;99335.78;5038118;28;45396;-77
2022/07/30 00:25:23;;;;;;;;;6.00;6.00;;;;;22.92;59.75;99338.34;5049653;28;46079;-76
2022/07/30 00:27:48;;;;;;;;;6.25;6.25;;;;;22.88;60.69;99350.34;5050139;28;45511;-77
2022/07/30 00:30:14;;;;;;;;;7.00;7.00;;;;;22.71;60.52;99351.78;5054464;28;45527;-79
2022/07/30 00:32:40;;;;;;;;;12.00;11.25;;;;;22.57;60.75;99349.44;5048969;28;45436;-79
2022/07/30 00:35:05;;;;;;;;;7.50;7.50;;;;;22.49;61.01;99349.22;5045664;28;46332;-79
2022/07/30 00:37:31;;;;;;;;;12.25;12.25;;;;;22.42;61.04;99346.22;5047094;28;45391;-78
2022/07/30 00:39:56;;;;;;;;;12.50;10.75;;;;;22.38;60.87;99343.91;5050201;28;45515;-79
2022/07/30 00:42:24;;;;;;;;;11.75;10.75;;;;;22.34;61.10;99343.31;5043484;28;45504;-78
2022/07/30 00:44:53;;;;;;;;;8.50;7.00;;;;;22.27;62.26;99347.53;5047928;28;47268;-77
2022/07/30 00:47:20;;;;;;;;;7.80;7.00;;;;;22.22;62.69;99347.06;5046678;28;45480;-77
2022/07/30 00:49:46;;;;;;;;;14.75;13.75;;;;;22.18;62.72;99343.78;5049285;28;45407;-77
2022/07/30 00:52:12;;;;;;;;;10.50;9.00;;;;;22.16;63.20;99342.19;5052201;28;45422;-77
2022/07/30 00:54:37;;;;;;;;;15.50;13.75;;;;;22.15;62.92;99344.03;5048366;28;46635;-77
2022/07/30 00:57:03;;;;;;;;;11.50;11.00;;;;;22.15;63.45;99338.66;5050127;28;45388;-77
2022/07/30 00:59:28;;;;;;;;;6.00;6.00;;;;;22.16;63.51;99337.69;5051703;28;45429;-77
2022/07/30 01:01:54;;;;;;;;;6.25;6.25;;;;;22.19;63.50;99339.25;5054814;28;45419;-77
2022/07/30 01:04:20;;;;;;;;;7.75;7.75;;;;;22.17;63.50;99330.47;5050017;28;45973;-79
2022/07/30 01:06:45;;;;;;;;;7.00;7.00;;;;;22.17;63.70;99334.00;5047509;28;45513;-79
2022/07/30 01:09:11;;;;;;;;;7.25;5.75;;;;;22.17;62.96;99334.00;5051139;28;45495;-79
2022/07/30 01:11:39;;;;;;;;;7.00;7.00;;;;;22.16;63.85;99331.44;5053391;28;45482;-78
2022/07/30 01:14:06;;;;;;;;;8.75;8.50;;;;;22.11;64.00;99329.19;5051333;28;47397;-79
2022/07/30 01:16:33;;;;;;;;;6.50;4.50;;;;;22.09;63.64;99331.13;5044771;28;45607;-79
2022/07/30 01:22:02;;;;;;;;;7.25;6.75;;;;;22.04;63.58;99336.03;5034970;28;45347;-79
2022/07/30 01:24:34;;;;;;;;;7.50;7.50;;;;;22.03;63.93;99331.63;5038915;28;46413;-79
2022/07/30 01:27:01;;;;;;;;;9.60;8.00;;;;;22.02;64.06;99340.66;5054110;28;45451;-79
2022/07/30 01:29:29;;;;;;;;;5.25;5.25;;;;;22.02;64.10;99338.00;5046747;28;45386;-79
2022/07/30 01:31:58;;;;;;;;;6.50;6.50;;;;;22.03;63.86;99337.00;5039734;28;45511;-79
2022/07/30 01:34:28;;;;;;;;;7.00;7.00;;;;;22.04;63.76;99340.53;5053165;28;45688;-79
2022/07/30 01:36:56;;;;;;;;;8.00;8.00;;;;;22.01;63.89;99336.28;5051075;28;45409;-78
2022/07/30 01:39:24;;;;;;;;;9.75;8.75;;;;;22.03;63.90;99344.22;5047042;28;45352;-78
2022/07/30 01:41:51;;;;;;;;;7.25;6.50;;;;;22.00;64.03;99337.25;5054082;28;45593;-78
2022/07/30 01:44:17;;;;;;;;;9.00;9.00;;;;;21.98;64.39;99332.97;5052782;28;46462;-78
2022/07/30 01:46:43;;;;;;;;;9.25;9.25;;;;;21.97;64.35;99333.94;5044874;28;45274;-79
2022/07/30 01:49:10;;;;;;;;;7.00;7.00;;;;;21.94;64.47;99337.75;5053143;28;45468;-79
2022/07/30 01:51:37;;;;;;;;;6.75;6.75;;;;;21.89;64.62;99331.91;5050243;28;45400;-79
2022/07/30 01:54:08;;;;;;;;;8.50;6.25;;;;;21.86;64.52;99335.69;5044899;28;45689;-78
2022/07/30 01:56:35;;;;;;;;;7.75;7.75;;;;;21.85;64.52;99323.25;5039808;28;45352;-78
2022/07/30 01:59:03;;;;;;;;;7.00;7.00;;;;;21.87;64.97;99315.06;5053064;28;45488;-79
2022/07/30 02:01:29;;;;;;;;;8.00;8.00;;;;;21.90;64.58;99313.00;5052486;28;45443;-79
2022/07/30 02:03:55;;;;;;;;;7.00;7.00;;;;;21.91;64.52;99313.84;5048342;28;46218;-78
2022/07/30 02:06:25;;;;;;;;;8.00;8.00;;;;;21.91;64.36;99309.34;5051735;28;45497;-78
2022/07/30 02:08:56;;;;;;;;;9.00;7.50;;;;;21.88;64.93;99311.41;5052005;28;45387;-79
2022/07/30 02:14:19;;;;;;;;;6.25;6.25;;;;;21.88;65.16;99308.72;5052129;28;45888;-79
2022/07/30 02:16:51;;;;;;;;;6.75;6.75;;;;;21.85;64.81;99317.88;5042462;28;45908;-78
2022/07/30 02:19:19;;;;;;;;;10.25;10.25;;;;;21.74;65.37;99311.72;5054127;28;45436;-79
2022/07/30 02:21:48;;;;;;;;;6.00;6.00;;;;;21.64;65.35;99316.13;5052579;28;45483;-78
2022/07/30 02:24:19;;;;;;;;;11.00;11.00;;;;;21.55;66.11;99312.38;5046760;28;46082;-78
2022/07/30 02:26:49;;;;;;;;;11.75;11.75;;;;;21.50;66.02;99317.25;5057138;28;45151;-78
2022/07/30 02:29:17;;;;;;;;;10.00;9.00;;;;;21.44;66.09;99315.09;5051660;28;45534;-78
2022/07/30 02:31:44;;;;;;;;;9.00;9.00;;;;;21.41;66.07;99312.66;5048432;28;45456;-79
2022/07/30 02:34:11;;;;;;;;;10.00;9.00;;;;;21.38;65.97;99318.28;5050304;28;45421;-78
2022/07/30 02:36:40;;;;;;;;;9.50;9.50;;;;;21.34;66.01;99319.50;5045349;28;45428;-78
2022/07/30 02:39:07;;;;;;;;;8.75;8.00;;;;;21.29;66.29;99325.22;5055294;28;45450;-79
2022/07/30 02:41:37;;;;;;;;;13.00;11.50;;;;;21.25;66.51;99329.16;5056084;28;45667;-79
2022/07/30 02:44:03;;;;;;;;;8.00;8.00;;;;;21.21;66.86;99331.22;5055019;28;45855;-79
2022/07/30 02:46:31;;;;;;;;;9.00;9.00;;;;;21.16;66.81;99328.00;5053900;28;45654;-78
2022/07/30 02:48:57;;;;;;;;;9.75;9.00;;;;;21.10;66.53;99330.34;5045186;28;45428;-79
2022/07/30 02:51:24;;;;;;;;;10.25;10.25;;;;;21.03;67.52;99321.94;5041914;28;45497;-78
2022/07/30 02:53:52;;;;;;;;;13.25;9.75;;;;;20.99;67.59;99324.97;5046132;28;48348;-79
2022/07/30 02:56:20;;;;;;;;;9.25;8.00;;;;;20.96;67.17;99314.47;5046527;28;45436;-79
2022/07/30 02:58:47;;;;;;;;;14.50;13.25;;;;;20.94;67.30;99330.72;5053708;27;45684;-79
2022/07/30 03:01:16;;;;;;;;;9.75;9.75;;;;;20.88;67.61;99331.19;5056605;28;45632;-78
2022/07/30 03:03:43;;;;;;;;;9.25;7.50;;;;;20.84;68.03;99335.06;5053961;28;45593;-78
2022/07/30 03:06:12;;;;;;;;;9.75;8.00;;;;;20.81;68.58;99332.63;5045603;28;45531;-79
2022/07/30 03:08:42;;;;;;;;;8.25;5.25;;;;;20.80;69.31;99328.25;5049495;28;45355;-79
2022/07/30 03:11:10;;;;;;;;;6.00;6.00;;;;;20.80;68.79;99334.47;5054734;28;45730;-79
2022/07/30 03:13:36;;;;;;;;;10.75;7.75;;;;;20.80;68.79;99328.25;5052196;28;47971;-79
2022/07/30 03:16:05;;;;;;;;;10.50;7.75;;;;;20.78;68.50;99333.72;5051082;28;45300;-79
2022/07/30 03:18:34;;;;;;;;;10.75;6.00;;;;;20.79;68.72;99339.94;5048677;28;45370;-79
2022/07/30 03:21:02;;;;;;;;;7.00;6.00;;;;;20.75;68.99;99333.13;5053342;28;45316;-79
2022/07/30 03:23:32;;;;;;;;;7.00;6.50;;;;;20.75;69.19;99333.13;5056034;28;46495;-79
2022/07/30 03:26:00;;;;;;;;;10.00;8.00;;;;;20.74;68.71;99344.81;5055821;28;45330;-79
2022/07/30 03:28:29;;;;;;;;;10.75;9.25;;;;;20.70;68.98;99338.00;5049375;28;45378;-79
2022/07/30 03:30:56;;;;;;;;;8.00;8.00;;;;;20.70;69.43;99344.22;5054666;28;45671;-79
2022/07/30 03:33:23;;;;;;;;;9.00;8.50;;;;;20.69;69.25;99347.84;5056031;28;46397;-79
2022/07/30 03:35:50;;;;;;;;;8.50;8.50;;;;;20.68;69.12;99350.66;5050619;28;45436;-79
2022/07/30 03:38:17;;;;;;;;;7.00;6.00;;;;;20.59;69.61;99351.38;5052907;28;45432;-79
2022/07/30 03:40:44;;;;;;;;;8.75;7.50;;;;;20.54;69.69;99354.41;5048832;28;45543;-79
2022/07/30 03:43:11;;;;;;;;;7.50;7.50;;;;;20.53;69.78;99352.69;5035560;28;47417;-79
2022/07/30 03:45:37;;;;;;;;;7.50;7.00;;;;;20.52;69.58;99353.66;5048090;28;45495;-79
2022/07/30 03:48:06;;;;;;;;;8.75;8.75;;;;;20.48;69.70;99349.50;5054118;28;45432;-79
2022/07/30 03:50:36;;;;;;;;;7.75;7.00;;;;;20.47;69.62;99347.81;5051094;28;45419;-79
2022/07/30 03:53:04;;;;;;;;;9.50;8.25;;;;;20.45;69.99;99355.94;5055922;28;45402;-80
2022/07/30 03:55:30;;;;;;;;;8.00;8.00;;;;;20.46;70.13;99356.81;5041533;28;45479;-79
2022/07/30 03:57:56;;;;;;;;;6.25;6.25;;;;;20.48;69.96;99361.09;5053769;28;45630;-79
2022/07/30 04:00:22;;;;;;;;;7.00;5.00;;;;;20.51;70.07;99360.84;5047335;28;45543;-79
2022/07/30 04:02:47;;;;;;;;;8.75;8.75;;;;;20.54;70.02;99367.81;5046520;28;45450;-79
2022/07/30 04:05:14;;;;;;;;;8.25;7.25;;;;;20.55;70.38;99358.78;5051121;28;45438;-78
2022/07/30 04:07:40;;;;;;;;;9.50;9.50;;;;;20.58;70.14;99369.28;5044855;28;45377;-79
2022/07/30 04:10:06;;;;;;;;;9.25;7.25;;;;;20.61;69.99;99369.00;5043492;28;45446;-79
2022/07/30 04:12:32;;;;;;;;;14.50;11.75;;;;;20.62;69.63;99369.88;5056544;28;48095;-78
2022/07/30 04:14:57;;;;;;;;;9.75;9.25;;;;;20.64;69.82;99375.97;5049744;28;45587;-78
2022/07/30 04:17:37;;;;;;;;;14.75;14.75;;;;;20.64;69.98;99376.81;5053403;28;45489;-79
2022/07/30 04:20:16;;;;;;;;;12.50;10.25;;;;;20.63;69.87;99382.28;5054421;28;45404;-79
2022/07/30 04:22:42;;;;;;;;;8.75;8.75;;;;;20.63;69.95;99382.28;5052991;28;46587;-79
2022/07/30 04:25:08;;;;;;;;;15.50;12.00;;;;;20.63;70.30;99387.66;5053149;28;45579;-79
2022/07/30 04:27:35;;;;;;;;;13.75;13.00;;;;;20.64;70.10;99392.03;5038060;28;45334;-79
2022/07/30 04:30:02;;;;;;;;;12.00;12.00;;;;;20.65;70.18;99394.59;5055343;28;45482;-78
2022/07/30 04:32:28;;;;;;;;;6.75;5.25;;;;;20.66;69.80;99396.31;5050134;28;45494;-78
2022/07/30 04:34:55;;;;;;;;;7.50;7.00;;;;;20.67;69.72;99400.69;5054962;28;45399;-79
2022/07/30 04:37:24;;;;;;;;;7.75;7.00;;;;;20.67;69.83;99400.69;5048331;28;45400;-79
2022/07/30 04:39:58;;;;;;;;;8.50;8.50;;;;;20.65;69.56;99401.78;5045158;28;45483;-78
2022/07/30 04:42:25;;;;;;;;;9.00;9.00;;;;;20.60;69.89;99404.84;5050847;28;46233;-79
2022/07/30 04:44:50;;;;;;;;;6.00;6.00;;;;;20.57;70.16;99405.06;5049548;28;45444;-77
2022/07/30 04:47:17;;;;;;;;;10.25;7.25;;;;;20.53;69.84;99412.47;5042490;28;45421;-78
2022/07/30 04:49:43;;;;;;;;;10.00;10.00;;;;;20.50;70.07;99418.06;5043881;28;45388;-78
2022/07/30 04:52:11;;;;;;;;;8.50;8.00;;;;;20.45;69.67;99411.34;5046644;28;45698;-77
2022/07/30 04:54:42;;;;;;;;;9.00;8.75;;;;;20.43;70.14;99421.34;5038658;28;45289;-78
2022/07/30 04:57:13;;;;;;;;;8.50;8.50;;;;;20.41;70.41;99417.94;5053293;28;45463;-78
2022/07/30 04:59:39;;;;;;;;;7.75;7.75;;;;;20.44;70.47;99421.19;5046131;28;45409;-78
2022/07/30 05:02:06;;;;;;;;;9.25;9.25;;;;;20.46;70.55;99423.78;5053290;28;46035;-78
2022/07/30 05:04:34;;;;;;;;;9.00;9.00;;;;;20.46;70.50;99432.66;5047590;28;45413;-78
2022/07/30 05:07:01;;;;;;;;;5.25;5.25;;;;;20.47;70.56;99433.50;5048749;28;45556;-78
2022/07/30 05:09:27;;;;;;;;;9.00;7.75;;;;;20.50;70.61;99439.50;5049435;28;45381;-78
2022/07/30 05:11:54;;;;;;;;;7.00;7.00;;;;;20.54;70.55;99435.63;5052972;28;46809;-78
2022/07/30 05:14:21;;;;;;;;;9.00;9.00;;;;;20.59;70.44;99435.28;5040438;28;45425;-60
2022/07/30 05:16:46;;;;;;;;;10.00;7.00;;;;;20.70;70.34;99446.03;5049134;28;45380;-64
2022/07/30 05:19:13;;;;;;;;;10.50;7.00;;;;;20.81;70.18;99443.38;5048079;28;45622;-63
2022/07/30 05:21:38;;;;;;;;;8.50;8.50;;;;;20.88;69.42;99444.63;5047918;28;46219;-64
2022/07/30 05:24:04;;;;;;;;;7.25;6.25;;;;;20.96;69.38;99437.78;5049253;28;45453;-63
2022/07/30 05:26:29;;;;;;;;;8.25;7.25;;;;;21.04;69.48;99440.75;5051706;28;45580;-64
2022/07/30 05:28:55;;;;;;;;;8.25;7.25;;;;;21.10;69.26;99443.81;5050103;28;45531;-63
2022/07/30 05:31:21;;;;;;;;;11.00;9.75;;;;;21.16;69.70;99443.31;5051628;28;45459;-63
2022/07/30 05:33:46;;;;;;;;;7.25;7.25;;;;;21.21;68.90;99440.31;5051219;28;45523;-63
2022/07/30 05:36:11;;;;;;;;;9.00;9.00;;;;;21.24;68.92;99443.59;5049462;28;45404;-63
2022/07/30 05:38:37;;;;;;;;;10.50;9.25;;;;;21.28;68.64;99444.22;5048740;28;45406;-64
2022/07/30 05:41:02;;;;;;;;;8.50;7.00;;;;;21.35;68.66;99439.22;5042946;28;45682;-64
2022/07/30 05:43:28;;;;;;;;;9.75;9.50;;;;;21.37;68.56;99446.16;5051653;28;45415;-64
2022/07/30 05:45:53;;;;;;;;;7.50;7.50;;;;;21.42;68.33;99448.50;5045128;28;45426;-64
2022/07/30 05:48:19;;;;;;;;;10.00;10.00;;;;;21.46;68.28;99447.25;5052742;28;45454;-64
2022/07/30 05:50:44;;;;;;;;;8.25;8.25;;;;;21.50;68.07;99449.56;5039923;28;45366;-64
2022/07/30 05:53:09;;;;;;;;;8.25;8.25;;;;;21.54;67.72;99440.31;5051801;28;45524;-64
2022/07/30 05:55:35;;;;;;;;;10.50;10.50;;;;;21.59;67.64;99440.81;5035806;28;45535;-64
2022/07/30 05:58:00;;;;;;;;;10.75;10.75;;;;;21.62;67.30;99434.31;5051488;28;45647;-64
2022/07/30 06:00:26;;;;;;;;;10.50;9.00;;;;;21.66;67.57;99441.16;5050534;28;46497;-64
2022/07/30 06:02:51;;;;;;;;;8.25;8.25;;;;;21.70;66.89;99439.94;5054974;28;45387;-63
2022/07/30 06:05:17;;;;;;;;;10.00;7.25;;;;;21.74;67.29;99443.22;5050350;28;45408;-65
2022/07/30 06:07:42;;;;;;;;;10.00;10.00;;;;;21.77;66.73;99442.97;5047942;28;45553;-64
2022/07/30 06:10:08;;;;;;;;;13.00;12.75;;;;;21.80;67.10;99434.66;5044275;28;45504;-64
2022/07/30 06:12:33;;;;;;;;;9.25;9.25;;;;;21.85;66.96;99443.19;5054639;28;45506;-64
2022/07/30 06:14:59;;;;;;;;;9.75;8.25;;;;;21.87;66.40;99442.09;5051982;28;45677;-64
2022/07/30 06:17:24;;;;;;;;;8.25;8.25;;;;;21.91;66.33;99446.25;5053040;28;45442;-64
2022/07/30 06:19:50;;;;;;;;;8.50;8.50;;;;;21.94;65.97;99446.00;5052088;28;46055;-64
2022/07/30 06:22:16;;;;;;;;;9.00;7.00;;;;;21.97;66.25;99441.31;5052707;28;45394;-64
2022/07/30 06:24:41;;;;;;;;;10.50;9.25;;;;;21.97;65.88;99442.19;5049527;28;45450;-64
2022/07/30 06:27:07;;;;;;;;;10.75;10.75;;;;;21.97;65.74;99441.31;5050625;28;45336;-64
2022/07/30 06:29:33;;;;;;;;;10.75;10.00;;;;;21.99;66.00;99437.53;5049487;28;46262;-65
2022/07/30 06:31:58;;;;;;;;;10.25;8.00;;;;;22.01;65.25;99443.69;5055893;28;45476;-64
2022/07/30 06:34:24;;;;;;;;;10.75;9.25;;;;;22.00;65.68;99441.97;5049715;28;45354;-64
2022/07/30 06:36:50;;;;;;;;;9.50;8.50;;;;;21.98;65.38;99449.25;5055979;28;45376;-64
2022/07/30 06:39:15;;;;;;;;;10.75;9.25;;;;;21.99;65.49;99440.22;5052696;28;46020;-64
2022/07/30 06:41:41;;;;;;;;;8.50;8.50;;;;;22.03;65.69;99446.25;5053826;28;45480;-64
2022/07/30 06:44:06;;;;;;;;;10.50;8.50;;;;;22.05;65.67;99441.59;5049289;28;45684;-63
2022/07/30 06:46:32;;;;;;;;;10.25;10.25;;;;;22.08;65.21;99444.91;5051603;28;45590;-64
2022/07/30 06:48:58;;;;;;;;;6.00;4.75;;;;;22.09;65.33;99453.81;5050499;27;45902;-64
2022/07/30 06:51:23;;;;;;;;;6.75;6.75;;;;;22.09;64.95;99451.13;5048653;28;45595;-64
2022/07/30 06:53:49;;;;;;;;;12.75;10.00;;;;;22.08;64.84;99447.59;5049944;28;45847;-64
2022/07/30 06:56:14;;;;;;;;;12.00;12.00;;;;;22.09;64.74;99446.59;5043755;28;45455;-64
2022/07/30 06:58:40;;;;;;;;;9.25;8.00;;;;;22.07;64.72;99456.63;5052766;28;46165;-64
2022/07/30 07:01:06;;;;;;;;;11.50;11.50;;;;;22.06;64.62;99448.69;5051779;28;45388;-64
2022/07/30 07:03:31;;;;;;;;;10.00;10.00;;;;;22.09;65.17;99454.66;5053846;28;45430;-64
2022/07/30 07:05:56;;;;;;;;;9.75;9.50;;;;;22.14;64.83;99449.75;5054034;28;45411;-64
2022/07/30 07:08:22;;;;;;;;;10.75;9.50;;;;;22.17;65.37;99446.81;5047570;28;45924;-64
2022/07/30 07:10:47;;;;;;;;;8.75;8.75;;;;;22.24;64.95;99448.03;5047516;28;45484;-64
2022/07/30 07:13:13;;;;;;;;;10.50;10.50;;;;;22.30;64.64;99449.31;5044110;28;45512;-64
2022/07/30 07:15:38;;;;;;;;;8.00;7.75;;;;;22.37;63.80;99450.53;5048194;28;45543;-64
2022/07/30 07:18:05;;;;;;;;;9.00;9.00;;;;;22.39;63.72;99450.41;5052904;28;45513;-64
2022/07/30 07:20:31;;;;;;;;;10.00;10.00;;;;;22.40;64.06;99452.13;5048880;28;45421;-65
2022/07/30 07:22:56;;;;;;;;;11.75;10.75;;;;;22.39;63.82;99450.41;5052198;28;45416;-64
2022/07/30 07:25:22;;;;;;;;;10.50;10.00;;;;;22.37;63.89;99452.38;5048411;28;45524;-64
2022/07/30 07:27:48;;;;;;;;;9.25;9.25;;;;;22.39;64.23;99451.25;5055130;28;46984;-64
2022/07/30 07:30:13;;;;;;;;;9.25;9.25;;;;;22.44;63.76;99449.06;5043937;28;45387;-65
2022/07/30 07:32:39;;;;;;;;;9.50;8.25;;;;;22.47;63.91;99446.06;5053942;28;45384;-64
2022/07/30 07:35:05;;;;;;;;;12.00;11.50;;;;;22.50;63.55;99445.81;5047946;28;45436;-64
2022/07/30 07:37:31;;;;;;;;;10.75;10.75;;;;;22.49;63.71;99451.31;5054643;28;46478;-65
2022/07/30 07:39:56;;;;;;;;;11.00;9.50;;;;;22.47;63.46;99443.41;5047058;28;45478;-64
2022/07/30 07:42:22;;;;;;;;;9.75;9.00;;;;;22.45;64.00;99440.00;5054923;28;45360;-64
2022/07/30 07:44:47;;;;;;;;;12.25;11.00;;;;;22.47;63.57;99439.84;5047935;28;45464;-64
2022/07/30 07:47:13;;;;;;;;;11.50;11.50;;;;;22.52;63.94;99435.81;5054362;28;45558;-64
2022/07/30 07:49:38;;;;;;;;;12.00;12.00;;;;;22.55;63.68;99434.69;5051480;28;45497;-64
2022/07/30 07:52:04;;;;;;;;;9.50;9.50;;;;;22.59;63.56;99439.69;5052432;28;45454;-65
2022/07/30 07:54:29;;;;;;;;;12.25;9.75;;;;;22.64;63.15;99432.06;5046717;28;45521;-64
2022/07/30 07:56:55;;;;;;;;;9.75;9.50;;;;;22.71;63.57;99436.94;5046364;28;46146;-64
2022/07/30 07:59:21;;;;;;;;;10.50;9.50;;;;;22.74;63.56;99424.09;5048406;28;45482;-64
2022/07/30 08:01:47;;;;;;;;;8.00;6.50;;;;;22.76;62.80;99424.81;5047657;28;45464;-63
2022/07/30 08:04:12;;;;;;;;;10.75;10.00;;;;;22.82;62.90;99426.16;5047159;28;45428;-64
2022/07/30 08:06:37;;;;;;;;;10.50;9.00;;;;;22.89;62.63;99421.97;5051434;28;46292;-64
2022/07/30 08:09:03;;;;;;;;;10.00;9.00;;;;;22.99;62.16;99422.84;5051924;28;45593;-64
2022/07/30 08:11:28;;;;;;;;;8.25;8.25;;;;;;;;5045002;28;45999;-65
2022/07/30 08:13:54;;;;;;;;;7.50;7.25;;;;;23.20;60.92;99425.53;5047209;28;45601;-64
2022/07/30 08:16:20;;;;;;;;;11.00;10.00;;;;;23.28;60.65;99423.88;5049883;28;46336;-64
2022/07/30 08:18:45;;;;;;;;;10.75;8.50;;;;;23.35;58.92;99421.50;5051951;28;45489;-64
2022/07/30 08:21:11;;;;;;;;;8.25;8.25;;;;;23.42;57.91;99419.97;5051750;28;45786;-64
2022/07/30 08:23:36;;;;;;;;;11.00;11.00;;;;;23.52;57.27;99422.72;5045832;28;45515;-64
2022/07/30 08:26:02;;;;;;;;;7.25;7.25;;;;;23.61;57.02;99421.94;5051097;28;45604;-68
2022/07/30 08:28:27;;;;;;;;;7.75;7.25;;;;;23.69;58.04;99408.63;5051259;28;45415;-68
2022/07/30 08:30:52;;;;;;;;;9.50;9.50;;;;;23.74;55.72;99414.44;5050467;28;45905;-67
2022/07/30 08:33:18;;;;;;;;;9.50;9.25;;;;;23.78;55.87;99418.56;5054005;28;45376;-67
2022/07/30 08:35:44;;;;;;;;;9.00;9.00;;;;;23.82;55.48;99419.97;5047214;28;46085;-67
2022/07/30 08:38:11;;;;;;;;;9.00;9.00;;;;;23.87;55.05;99414.19;5052338;28;45378;-67
2022/07/30 08:40:36;;;;;;;;;7.50;7.50;;;;;23.90;54.96;99419.31;5047392;28;45469;-67
2022/07/30 08:43:03;;;;;;;;;9.25;9.00;;;;;23.95;54.95;99412.53;5050594;28;45504;-66
2022/07/30 08:45:34;;;;;;;;;8.00;8.00;;;;;24.02;55.03;99408.25;5044634;28;45522;-67
2022/07/30 08:48:00;;;;;;;;;9.20;9.20;;;;;24.12;55.08;99410.97;5052476;28;45431;-67
2022/07/30 08:50:27;;;;;;;;;8.00;8.00;;;;;24.21;54.38;99406.59;5051859;28;45521;-67
2022/07/30 08:52:54;;;;;;;;;10.00;10.00;;;;;24.29;54.72;99404.09;5052055;28;45515;-69
2022/07/30 08:55:23;;;;;;;;;9.75;9.25;;;;;24.39;54.17;99401.38;5043669;28;46388;-67
2022/07/30 08:57:49;;;;;;;;;10.75;9.50;;;;;24.46;53.16;99406.06;5053231;28;45369;-67
2022/07/30 09:00:15;;;;;;;;;8.00;8.00;;;;;24.48;53.55;99397.81;5044353;28;45651;-66
2022/07/30 09:02:41;;;;;;;;;9.00;9.00;;;;;24.52;53.27;99405.47;5053950;28;45554;-67
2022/07/30 09:05:09;;;;;;;;;9.25;9.25;;;;;24.58;53.46;99401.38;5042415;28;46497;-67
2022/07/30 09:07:35;;;;;;;;;9.75;8.75;;;;;24.63;52.74;99391.84;5042065;28;45594;-68
2022/07/30 09:10:01;;;;;;;;;8.50;8.50;;;;;24.70;52.21;99398.38;5052396;28;45460;-69
2022/07/30 09:12:41;;;;;;;;;7.50;7.00;;;;;24.77;51.87;99392.41;5042467;28;45373;-67
2022/07/30 09:15:19;;;;;;;;;10.50;10.00;;;;;24.86;51.93;99394.22;5047418;28;45536;-67
2022/07/30 09:17:51;;;;;;;;;10.00;9.00;;;;;24.94;52.41;99384.44;5053043;28;45419;-67
2022/07/30 09:20:18;;;;;;;;;8.25;8.00;;;;;25.01;52.59;99390.94;5049615;28;45415;-67
2022/07/30 09:22:46;;;;;;;;;10.00;9.00;;;;;25.11;52.42;99390.94;5038212;28;45586;-67
2022/07/30 09:25:12;;;;;;;;;11.00;11.00;;;;;25.19;51.67;99388.31;5050340;28;45691;-67
2022/07/30 09:27:49;;;;;;;;;10.25;9.75;;;;;25.23;51.13;99389.75;5053195;28;45350;-67
2022/07/30 09:30:15;;;;;;;;;8.75;8.75;;;;;25.28;51.38;99387.47;5052807;28;45490;-67
2022/07/30 09:32:48;;;;;;;;;11.00;11.00;;;;;25.33;50.85;99385.13;5051094;28;45482;-67
2022/07/30 09:35:14;;;;;;;;;9.25;8.75;;;;;25.38;50.75;99380.16;5045602;28;46196;-67
2022/07/30 09:37:39;;;;;;;;;12.00;11.00;;;;;25.45;50.62;99380.41;5048037;28;45421;-67
2022/07/30 09:40:17;;;;;;;;;12.75;11.25;;;;;25.52;50.68;99373.41;5050211;28;45426;-67
2022/07/30 09:42:43;;;;;;;;;11.75;9.00;;;;;25.61;50.82;99372.50;5047842;28;45532;-67
2022/07/30 09:45:12;;;;;;;;;11.25;8.25;;;;;25.73;50.49;99374.03;5041327;28;46354;-67
2022/07/30 09:47:49;;;;;;;;;11.00;10.50;;;;;25.86;50.98;99372.81;5050063;28;45439;-67
2022/07/30 09:50:23;;;;;;;;;9.25;9.25;;;;;25.95;50.40;99364.66;5041721;28;45468;-67
2022/07/30 09:52:49;;;;;;;;;8.00;8.00;;;;;26.00;50.32;99365.03;5052704;28;45527;-67
2022/07/30 09:55:31;;;;;;;;;11.00;11.00;;;;;26.06;50.40;99364.41;5035585;28;46561;-67
2022/07/30 09:58:00;;;;;;;;;8.20;8.20;;;;;26.15;50.75;99357.22;5038259;28;45394;-67
2022/07/30 10:00:27;;;;;;;;;10.00;10.00;;;;;26.25;50.29;99355.31;5033173;28;45502;-66
2022/07/30 10:02:53;;;;;;;;;10.50;9.00;;;;;26.38;50.43;99357.63;5033311;28;45378;-66
2022/07/30 10:05:20;;;;;;;;;9.00;8.75;;;;;26.45;49.75;99350.63;5031592;28;46624;-66
2022/07/30 10:07:53;;;;;;;;;10.25;9.00;;;;;26.54;49.77;99352.34;5030767;28;45420;-66
2022/07/30 10:10:22;;;;;;;;;7.50;7.50;;;;;26.62;48.99;99341.63;5039897;28;45511;-67
2022/07/30 10:12:51;;;;;;;;;9.50;9.25;;;;;26.75;48.99;99341.19;5036489;28;45331;-67
2022/07/30 10:15:20;;;;;;;;;7.00;7.00;;;;;26.86;44.05;99327.38;5031324;28;45644;-66
2022/07/30 10:17:46;;;;;;;;;7.40;7.40;;;;;26.93;45.25;99325.75;5032461;28;45445;-67
2022/07/30 10:20:13;;;;;;;;;6.50;5.00;;;;;27.01;43.27;99331.22;5032995;28;45323;-66
2022/07/30 10:22:39;;;;;;;;;6.25;6.25;;;;;27.10;42.99;99330.28;5051267;28;45490;-67
2022/07/30 10:25:05;;;;;;;;;6.75;6.50;;;;;27.22;43.38;99311.03;5052602;28;46310;-67
2022/07/30 10:27:32;;;;;;;;;5.80;5.60;;;;;27.37;40.73;99302.13;5053004;28;45475;-66
2022/07/30 10:29:59;;;;;;;;;10.00;8.75;;;;;27.45;40.82;99317.56;5052887;28;45435;-67
2022/07/30 10:32:27;;;;;;;;;7.75;6.00;;;;;27.55;40.19;99306.56;5053035;28;45471;-67
2022/07/30 10:34:54;;;;;;;;;7.25;7.25;;;;;27.59;42.67;99305.28;5052253;28;45719;-65
2022/07/30 10:37:22;;;;;;;;;6.40;6.40;;;;;27.62;42.32;99300.38;5052525;28;45384;-67
2022/07/30 10:39:57;;;;;;;;;5.25;4.50;;;;;27.73;41.99;99305.47;5052882;28;45403;-67
2022/07/30 10:43:08;;;;;;;;;7.75;7.50;;;;;27.87;41.84;99303.97;5052883;28;45325;-65
2022/07/30 10:45:48;;;;;;;;;6.50;6.50;;;;;27.97;42.51;99301.97;5055057;28;46175;-65
2022/07/30 10:48:15;;;;;;;;;7.60;7.60;;;;;28.06;42.28;99306.38;5056215;28;45459;-65
2022/07/30 10:50:51;;;;;;;;;11.75;9.00;;;;;28.19;42.11;99302.28;5053809;28;45429;-65
2022/07/30 10:53:40;;;;;;;;;9.00;7.25;;;;;28.32;41.40;99305.41;5047264;28;45454;-66
2022/07/30 10:56:12;;;;;;;;;8.50;7.00;;;;;28.45;40.42;99300.31;5035562;28;45544;-65
2022/07/30 10:59:00;;;;;;;;;6.00;6.00;;;;;28.54;38.77;99295.69;5035420;28;45412;-66
2022/07/30 11:01:46;;;;;;;;;5.50;5.00;;;;;28.65;36.64;99293.50;5036091;28;45377;-66
2022/07/30 11:04:19;;;;;;;;;5.25;5.25;;;;;28.74;39.41;99291.59;5035803;28;45357;-66
2022/07/30 11:06:45;;;;;;;;;4.00;4.00;;;;;28.78;34.99;99296.50;5036004;28;45681;-66
2022/07/30 11:09:38;;;;;;;;;5.00;5.00;;;;;28.73;35.75;99282.59;5035919;28;45475;-66
2022/07/30 11:12:05;;;;;;;;;3.25;3.00;;;;;28.69;35.45;99285.84;5037162;28;45394;-66
2022/07/30 11:14:46;;;;;;;;;5.50;4.50;;;;;28.73;35.78;99290.75;5033642;28;45443;-66
2022/07/30 11:17:20;;;;;;;;;4.00;4.00;;;;;28.79;35.35;99275.66;5036013;28;46601;-66
2022/07/30 11:20:01;;;;;;;;;7.80;6.00;;;;;28.84;34.53;99265.13;5055233;28;45453;-66
2022/07/30 11:22:43;;;;;;;;;5.50;5.25;;;;;28.92;34.97;99265.13;5055098;28;45524;-66
2022/07/30 11:25:29;;;;;;;;;5.50;3.50;;;;;29.04;34.29;99273.72;5055090;28;45472;-65
2022/07/30 11:27:55;;;;;;;;;4.00;4.00;;;;;29.15;35.03;99260.63;5042770;28;45330;-66
2022/07/30 11:30:21;;;;;;;;;3.00;3.00;;;;;29.23;33.64;99259.72;5036063;28;45594;-65
2022/07/30 11:32:54;;;;;;;;;4.00;4.00;;;;;29.31;34.19;99267.00;5035828;28;45432;-66
2022/07/30 11:35:25;;;;;;;;;2.25;2.25;;;;;29.46;34.56;99270.69;5038044;28;45368;-65
2022/07/30 11:38:01;;;;;;;;;4.50;4.00;;;;;29.66;33.66;99260.22;5055574;28;46500;-65